sensor_id;sensor_type;location;lat;lon;timestamp;pressure;altitude;pressure_sealevel;temperature;humidity
10881;BME280;5493;48.884;8.338;2023-07-31T00:00:58;100241.94;;;20.29;100.00
10881;BME280;5493;48.884;8.338;2023-07-31T00:03:25;100237.50;;;20.33;100.00
10881;BME280;5493;48.884;8.338;2023-07-31T00:05:51;100232.88;;;20.24;100.00
10881;BME280;5493;48.884;8.338;2023-07-31T00:08:18;100233.72;;;20.29;100.00
10881;BME280;5493;48.884;8.338;2023-07-31T00:10:46;100232.97;;;20.08;100.00
10881;BME280;5493;48.884;8.338;2023-07-31T00:13:12;100237.78;;;20.27;100.00
10881;BME280;5493;48.884;8.338;2023-07-31T00:15:39;100235.28;;;19.96;100.00
10881;BME280;5493;48.884;8.338;2023-07-31T00:18:05;100235.53;;;20.00;100.00
10881;BME280;5493;48.884;8.338;2023-07-31T00:20:32;100226.16;;;20.06;100.00
10881;BME280;5493;48.884;8.338;2023-07-31T00:22:59;100230.91;;;19.90;100.00
10881;BME280;5493;48.884;8.338;2023-07-31T00:25:25;100221.84;;;20.00;100.00
10881;BME280;5493;48.884;8.338;2023-07-31T00:27:53;100220.22;;;19.94;100.00
10881;BME280;5493;48.884;8.338;2023-07-31T00:30:20;100219.13;;;19.90;100.00
10881;BME280;5493;48.884;8.338;2023-07-31T00:32:47;100220.50;;;19.92;100.00
10881;BME280;5493;48.884;8.338;2023-07-31T00:35:14;100220.25;;;19.89;100.00
10881;BME280;5493;48.884;8.338;2023-07-31T00:37:40;100217.25;;;19.85;100.00
10881;BME280;5493;48.884;8.338;2023-07-31T00:40:08;100208.50;;;19.83;100.00
10881;BME280;5493;48.884;8.338;2023-07-31T00:42:34;100211.81;;;19.75;100.00
10881;BME280;5493;48.884;8.338;2023-07-31T00:45:03;100212.44;;;19.67;100.00
10881;BME280;5493;48.884;8.338;2023-07-31T00:47:30;100216.25;;;19.71;100.00
10881;BME280;5493;48.884;8.338;2023-07-31T00:49:56;100203.09;;;19.73;100.00
10881;BME280;5493;48.884;8.338;2023-07-31T00:52:23;100201.19;;;19.69;100.00
10881;BME280;5493;48.884;8.338;2023-07-31T00:54:50;100203.94;;;19.69;100.00
10881;BME280;5493;48.884;8.338;2023-07-31T00:57:16;100196.78;;;19.78;100.00
10881;BME280;5493;48.884;8.338;2023-07-31T00:59:43;100196.28;;;19.65;100.00
10881;BME280;5493;48.884;8.338;2023-07-31T01:02:13;100195.19;;;19.67;100.00
10881;BME280;5493;48.884;8.338;2023-07-31T01:04:41;100203.41;;;19.61;100.00
10881;BME280;5493;48.884;8.338;2023-07-31T01:07:12;100200.41;;;19.63;100.00
10881;BME280;5493;48.884;8.338;2023-07-31T01:09:43;100184.84;;;19.58;100.00
10881;BME280;5493;48.884;8.338;2023-07-31T01:12:14;100182.66;;;19.55;100.00
10881;BME280;5493;48.884;8.338;2023-07-31T01:14:50;100185.47;;;19.45;100.00
10881;BME280;5493;48.884;8.338;2023-07-31T01:17:18;100181.53;;;19.61;100.00
10881;BME280;5493;48.884;8.338;2023-07-31T01:19:50;100176.63;;;19.58;100.00
10881;BME280;5493;48.884;8.338;2023-07-31T01:22:27;100181.59;;;19.46;100.00
10881;BME280;5493;48.884;8.338;2023-07-31T01:25:04;100181.91;;;19.35;100.00
10881;BME280;5493;48.884;8.338;2023-07-31T01:27:44;100182.69;;;19.40;100.00
10881;BME280;5493;48.884;8.338;2023-07-31T01:30:16;100183.25;;;19.47;100.00
10881;BME280;5493;48.884;8.338;2023-07-31T01:32:46;100190.91;;;19.40;100.00
10881;BME280;5493;48.884;8.338;2023-07-31T01:35:14;100180.50;;;19.47;100.00
10881;BME280;5493;48.884;8.338;2023-07-31T01:37:40;100179.44;;;19.43;100.00
10881;BME280;5493;48.884;8.338;2023-07-31T01:40:08;100175.06;;;19.37;100.00
10881;BME280;5493;48.884;8.338;2023-07-31T01:42:34;100168.00;;;19.26;100.00
10881;BME280;5493;48.884;8.338;2023-07-31T01:45:02;100169.59;;;19.37;100.00
10881;BME280;5493;48.884;8.338;2023-07-31T01:47:29;100166.59;;;19.34;100.00
10881;BME280;5493;48.884;8.338;2023-07-31T01:49:56;100171.25;;;19.33;100.00
10881;BME280;5493;48.884;8.338;2023-07-31T01:52:22;100156.81;;;19.28;100.00
10881;BME280;5493;48.884;8.338;2023-07-31T01:54:49;100161.66;;;19.36;100.00
10881;BME280;5493;48.884;8.338;2023-07-31T01:57:15;100161.41;;;19.32;100.00
10881;BME280;5493;48.884;8.338;2023-07-31T01:59:42;100151.84;;;19.35;100.00
10881;BME280;5493;48.884;8.338;2023-07-31T02:02:10;100151.53;;;19.36;100.00
10881;BME280;5493;48.884;8.338;2023-07-31T02:04:36;100139.00;;;19.30;100.00
10881;BME280;5493;48.884;8.338;2023-07-31T02:07:05;100132.19;;;19.28;100.00
10881;BME280;5493;48.884;8.338;2023-07-31T02:09:31;100133.34;;;19.16;100.00
10881;BME280;5493;48.884;8.338;2023-07-31T02:11:58;100128.09;;;19.25;100.00
10881;BME280;5493;48.884;8.338;2023-07-31T02:14:24;100130.56;;;19.22;100.00
10881;BME280;5493;48.884;8.338;2023-07-31T02:16:51;100137.94;;;19.26;100.00
10881;BME280;5493;48.884;8.338;2023-07-31T02:19:19;100137.91;;;19.31;100.00
10881;BME280;5493;48.884;8.338;2023-07-31T02:21:45;100129.53;;;19.12;100.00
10881;BME280;5493;48.884;8.338;2023-07-31T02:24:12;100121.28;;;19.17;100.00
10881;BME280;5493;48.884;8.338;2023-07-31T02:26:38;100122.94;;;19.18;100.00
10881;BME280;5493;48.884;8.338;2023-07-31T02:29:05;100118.53;;;19.28;100.00
10881;BME280;5493;48.884;8.338;2023-07-31T02:31:31;100119.88;;;19.25;100.00
10881;BME280;5493;48.884;8.338;2023-07-31T02:33:58;100110.34;;;19.17;100.00
10881;BME280;5493;48.884;8.338;2023-07-31T02:36:26;100103.22;;;19.22;100.00
10881;BME280;5493;48.884;8.338;2023-07-31T02:38:52;100106.81;;;19.17;100.00
10881;BME280;5493;48.884;8.338;2023-07-31T02:41:19;100110.59;;;19.31;100.00
10881;BME280;5493;48.884;8.338;2023-07-31T02:43:45;100114.66;;;19.29;100.00
10881;BME280;5493;48.884;8.338;2023-07-31T02:46:12;100111.16;;;19.18;100.00
10881;BME280;5493;48.884;8.338;2023-07-31T02:48:38;100114.47;;;19.20;100.00
10881;BME280;5493;48.884;8.338;2023-07-31T02:51:05;100115.47;;;19.34;100.00
10881;BME280;5493;48.884;8.338;2023-07-31T02:53:33;100117.66;;;19.42;100.00
10881;BME280;5493;48.884;8.338;2023-07-31T02:55:59;100120.09;;;19.44;100.00
10881;BME280;5493;48.884;8.338;2023-07-31T02:58:26;100114.63;;;19.49;100.00
10881;BME280;5493;48.884;8.338;2023-07-31T03:00:52;100114.63;;;19.49;100.00
10881;BME280;5493;48.884;8.338;2023-07-31T03:03:19;100115.44;;;19.39;100.00
10881;BME280;5493;48.884;8.338;2023-07-31T03:05:45;100110.97;;;19.63;100.00
10881;BME280;5493;48.884;8.338;2023-07-31T03:08:12;100112.44;;;19.46;100.00
10881;BME280;5493;48.884;8.338;2023-07-31T03:10:40;100112.59;;;19.64;100.00
10881;BME280;5493;48.884;8.338;2023-07-31T03:13:06;100124.00;;;19.77;100.00
10881;BME280;5493;48.884;8.338;2023-07-31T03:15:33;100126.22;;;19.75;100.00
10881;BME280;5493;48.884;8.338;2023-07-31T03:17:59;100122.44;;;19.65;100.00
10881;BME280;5493;48.884;8.338;2023-07-31T03:20:26;100122.69;;;19.69;100.00
10881;BME280;5493;48.884;8.338;2023-07-31T03:22:52;100124.81;;;19.77;100.00
10881;BME280;5493;48.884;8.338;2023-07-31T03:25:19;100117.13;;;19.79;100.00
10881;BME280;5493;48.884;8.338;2023-07-31T03:27:47;100108.88;;;19.89;100.00
10881;BME280;5493;48.884;8.338;2023-07-31T03:30:13;100107.81;;;19.85;100.00
10881;BME280;5493;48.884;8.338;2023-07-31T03:32:40;100103.41;;;19.89;100.00
10881;BME280;5493;48.884;8.338;2023-07-31T03:35:07;100102.28;;;19.90;100.00
10881;BME280;5493;48.884;8.338;2023-07-31T03:37:33;100100.78;;;19.74;100.00
10881;BME280;5493;48.884;8.338;2023-07-31T03:40:00;100109.50;;;19.76;100.00
10881;BME280;5493;48.884;8.338;2023-07-31T03:42:26;100108.69;;;19.76;100.00
10881;BME280;5493;48.884;8.338;2023-07-31T03:44:54;100111.97;;;19.78;100.00
10881;BME280;5493;48.884;8.338;2023-07-31T03:47:21;100112.56;;;19.70;100.00
10881;BME280;5493;48.884;8.338;2023-07-31T03:49:48;100108.69;;;19.76;100.00
10881;BME280;5493;48.884;8.338;2023-07-31T03:52:15;100108.94;;;19.79;100.00
10881;BME280;5493;48.884;8.338;2023-07-31T03:54:41;100098.78;;;19.85;100.00
10881;BME280;5493;48.884;8.338;2023-07-31T03:57:09;100109.47;;;19.81;100.00
10881;BME280;5493;48.884;8.338;2023-07-31T03:59:35;100123.00;;;19.62;100.00
10881;BME280;5493;48.884;8.338;2023-07-31T04:02:05;100123.09;;;19.91;100.00
10881;BME280;5493;48.884;8.338;2023-07-31T04:04:31;100119.34;;;19.82;100.00
10881;BME280;5493;48.884;8.338;2023-07-31T04:06:58;100115.78;;;19.77;100.00
10881;BME280;5493;48.884;8.338;2023-07-31T04:09:24;100122.19;;;19.62;100.00
10881;BME280;5493;48.884;8.338;2023-07-31T04:11:51;100125.91;;;19.76;100.00
10881;BME280;5493;48.884;8.338;2023-07-31T04:14:17;100111.16;;;19.77;100.00
10881;BME280;5493;48.884;8.338;2023-07-31T04:16:44;100116.13;;;19.70;100.00
10881;BME280;5493;48.884;8.338;2023-07-31T04:19:12;100112.25;;;19.76;100.00
10881;BME280;5493;48.884;8.338;2023-07-31T04:21:43;100107.84;;;19.75;100.00
10881;BME280;5493;48.884;8.338;2023-07-31T04:24:09;100109.84;;;19.64;100.00
10881;BME280;5493;48.884;8.338;2023-07-31T04:26:36;100105.44;;;19.74;100.00
10881;BME280;5493;48.884;8.338;2023-07-31T04:29:03;100109.06;;;19.64;100.00
10881;BME280;5493;48.884;8.338;2023-07-31T04:31:29;100103.59;;;19.59;100.00
10881;BME280;5493;48.884;8.338;2023-07-31T04:33:56;100107.44;;;19.58;100.00
10881;BME280;5493;48.884;8.338;2023-07-31T04:36:23;100099.47;;;19.67;100.00
10881;BME280;5493;48.884;8.338;2023-07-31T04:38:50;100092.91;;;19.62;100.00
10881;BME280;5493;48.884;8.338;2023-07-31T04:41:16;100092.16;;;19.52;100.00
10881;BME280;5493;48.884;8.338;2023-07-31T04:43:43;100099.81;;;19.55;100.00
10881;BME280;5493;48.884;8.338;2023-07-31T04:46:10;100092.75;;;19.49;100.00
10881;BME280;5493;48.884;8.338;2023-07-31T04:48:36;100092.34;;;19.65;100.00
10881;BME280;5493;48.884;8.338;2023-07-31T04:51:03;100095.56;;;19.73;100.00
10881;BME280;5493;48.884;8.338;2023-07-31T04:53:31;100090.09;;;19.78;100.00
10881;BME280;5493;48.884;8.338;2023-07-31T04:55:57;100090.69;;;19.64;100.00
10881;BME280;5493;48.884;8.338;2023-07-31T04:58:24;100081.38;;;19.71;100.00
10881;BME280;5493;48.884;8.338;2023-07-31T05:00:50;100085.44;;;19.78;100.00
10881;BME280;5493;48.884;8.338;2023-07-31T05:03:17;100090.09;;;19.78;100.00
10881;BME280;5493;48.884;8.338;2023-07-31T05:05:44;100096.22;;;19.93;100.00
10881;BME280;5493;48.884;8.338;2023-07-31T05:08:10;100088.81;;;19.99;100.00
10881;BME280;5493;48.884;8.338;2023-07-31T05:10:38;100085.44;;;19.78;100.00
10881;BME280;5493;48.884;8.338;2023-07-31T05:13:05;100086.06;;;19.99;100.00
10881;BME280;5493;48.884;8.338;2023-07-31T05:15:31;100080.16;;;19.87;100.00
10881;BME280;5493;48.884;8.338;2023-07-31T05:17:58;100076.19;;;20.03;100.00
10881;BME280;5493;48.884;8.338;2023-07-31T05:20:24;100078.59;;;20.09;100.00
10881;BME280;5493;48.884;8.338;2023-07-31T05:22:51;100087.16;;;19.98;100.00
10881;BME280;5493;48.884;8.338;2023-07-31T05:25:17;100069.53;;;20.14;100.00
10881;BME280;5493;48.884;8.338;2023-07-31T05:27:45;100077.88;;;20.33;100.00
10881;BME280;5493;48.884;8.338;2023-07-31T05:30:12;100079.22;;;20.59;100.00
10881;BME280;5493;48.884;8.338;2023-07-31T05:32:38;100081.69;;;20.60;100.00
10881;BME280;5493;48.884;8.338;2023-07-31T05:35:05;100078.00;;;20.70;100.00
10881;BME280;5493;48.884;8.338;2023-07-31T05:37:32;100080.03;;;21.07;100.00
10881;BME280;5493;48.884;8.338;2023-07-31T05:39:59;100068.50;;;20.86;100.00
10881;BME280;5493;48.884;8.338;2023-07-31T05:42:25;100079.34;;;20.96;100.00
10881;BME280;5493;48.884;8.338;2023-07-31T05:44:53;100059.59;;;20.76;100.00
10881;BME280;5493;48.884;8.338;2023-07-31T05:47:20;100069.63;;;20.85;100.00
10881;BME280;5493;48.884;8.338;2023-07-31T05:49:46;100061.50;;;20.99;100.00
10881;BME280;5493;48.884;8.338;2023-07-31T05:52:13;100058.59;;;21.09;100.00
10881;BME280;5493;48.884;8.338;2023-07-31T05:54:39;100067.03;;;21.18;100.00
10881;BME280;5493;48.884;8.338;2023-07-31T05:57:06;100063.84;;;21.10;100.00
10881;BME280;5493;48.884;8.338;2023-07-31T05:59:32;100067.06;;;20.94;100.00
10881;BME280;5493;48.884;8.338;2023-07-31T06:02:00;100060.44;;;21.19;100.00
10881;BME280;5493;48.884;8.338;2023-07-31T06:04:27;100065.38;;;20.98;100.00
10881;BME280;5493;48.884;8.338;2023-07-31T06:06:53;100042.91;;;20.96;100.00
10881;BME280;5493;48.884;8.338;2023-07-31T06:09:20;100043.47;;;21.17;100.00
10881;BME280;5493;48.884;8.338;2023-07-31T06:11:47;100045.63;;;21.38;100.00
10881;BME280;5493;48.884;8.338;2023-07-31T06:14:13;100044.50;;;21.21;100.00
10881;BME280;5493;48.884;8.338;2023-07-31T06:16:40;100038.88;;;21.49;100.00
10881;BME280;5493;48.884;8.338;2023-07-31T06:19:08;100048.16;;;21.16;100.00
10881;BME280;5493;48.884;8.338;2023-07-31T06:21:35;100052.03;;;21.34;100.00
10881;BME280;5493;48.884;8.338;2023-07-31T06:24:02;100054.53;;;21.30;100.00
10881;BME280;5493;48.884;8.338;2023-07-31T06:26:29;100055.88;;;21.33;100.00
10881;BME280;5493;48.884;8.338;2023-07-31T06:28:55;100055.78;;;21.19;100.00
10881;BME280;5493;48.884;8.338;2023-07-31T06:31:22;100063.50;;;21.36;100.00
10881;BME280;5493;48.884;8.338;2023-07-31T06:33:49;100060.59;;;21.46;100.00
10881;BME280;5493;48.884;8.338;2023-07-31T06:36:17;100056.69;;;21.52;100.00
10881;BME280;5493;48.884;8.338;2023-07-31T06:38:43;100057.94;;;21.22;100.00
10881;BME280;5493;48.884;8.338;2023-07-31T06:41:10;100057.47;;;21.71;100.00
10881;BME280;5493;48.884;8.338;2023-07-31T06:43:36;100061.69;;;21.64;100.00
10881;BME280;5493;48.884;8.338;2023-07-31T06:46:04;100059.94;;;21.73;100.00
10881;BME280;5493;48.884;8.338;2023-07-31T06:48:31;100070.34;;;21.89;100.00
10881;BME280;5493;48.884;8.338;2023-07-31T06:50:58;100067.41;;;21.67;100.00
10881;BME280;5493;48.884;8.338;2023-07-31T06:53:26;100064.97;;;21.47;100.00
10881;BME280;5493;48.884;8.338;2023-07-31T06:55:52;100057.69;;;21.56;100.00
10881;BME280;5493;48.884;8.338;2023-07-31T06:58:20;100069.03;;;21.68;100.00
10881;BME280;5493;48.884;8.338;2023-07-31T07:00:46;100066.63;;;21.48;100.00
10881;BME280;5493;48.884;8.338;2023-07-31T07:03:14;100053.78;;;21.81;100.00
10881;BME280;5493;48.884;8.338;2023-07-31T07:05:41;100055.09;;;21.83;100.00
10881;BME280;5493;48.884;8.338;2023-07-31T07:08:07;100047.75;;;21.60;100.00
10881;BME280;5493;48.884;8.338;2023-07-31T07:10:35;100060.66;;;21.78;100.00
10881;BME280;5493;48.884;8.338;2023-07-31T07:13:02;100045.84;;;21.60;100.00
10881;BME280;5493;48.884;8.338;2023-07-31T07:15:28;100044.50;;;21.58;100.00
10881;BME280;5493;48.884;8.338;2023-07-31T07:17:55;100031.50;;;21.82;100.00
10881;BME280;5493;48.884;8.338;2023-07-31T07:20:21;100039.22;;;21.99;100.00
10881;BME280;5493;48.884;8.338;2023-07-31T07:22:48;100047.13;;;21.82;100.00
10881;BME280;5493;48.884;8.338;2023-07-31T07:25:14;100045.34;;;22.10;100.00
10881;BME280;5493;48.884;8.338;2023-07-31T07:27:42;100047.25;;;21.95;100.00
10881;BME280;5493;48.884;8.338;2023-07-31T07:30:09;100036.56;;;22.07;100.00
10881;BME280;5493;48.884;8.338;2023-07-31T07:32:36;100047.00;;;22.24;100.00
10881;BME280;5493;48.884;8.338;2023-07-31T07:35:03;100048.16;;;22.04;100.00
10881;BME280;5493;48.884;8.338;2023-07-31T07:37:30;100046.25;;;22.05;100.00
10881;BME280;5493;48.884;8.338;2023-07-31T07:39:56;100041.75;;;21.95;100.00
10881;BME280;5493;48.884;8.338;2023-07-31T07:42:23;100025.06;;;21.92;100.00
10881;BME280;5493;48.884;8.338;2023-07-31T07:44:51;100036.91;;;22.06;100.00
10881;BME280;5493;48.884;8.338;2023-07-31T07:47:17;100028.13;;;22.04;100.00
10881;BME280;5493;48.884;8.338;2023-07-31T07:49:44;100021.44;;;22.10;100.00
10881;BME280;5493;48.884;8.338;2023-07-31T07:52:11;100023.03;;;22.57;100.00
10881;BME280;5493;48.884;8.338;2023-07-31T07:54:37;100008.88;;;22.64;100.00
10881;BME280;5493;48.884;8.338;2023-07-31T07:57:04;100020.59;;;22.83;100.00
10881;BME280;5493;48.884;8.338;2023-07-31T07:59:30;100017.19;;;23.13;100.00
10881;BME280;5493;48.884;8.338;2023-07-31T08:01:58;100016.50;;;23.08;100.00
10881;BME280;5493;48.884;8.338;2023-07-31T08:04:25;100022.16;;;23.25;100.00
10881;BME280;5493;48.884;8.338;2023-07-31T08:06:51;100037.34;;;23.22;100.00
10881;BME280;5493;48.884;8.338;2023-07-31T08:09:18;100019.06;;;22.77;100.00
10881;BME280;5493;48.884;8.338;2023-07-31T08:11:44;100035.56;;;23.04;100.00
10881;BME280;5493;48.884;8.338;2023-07-31T08:14:11;100033.09;;;23.02;100.00
10881;BME280;5493;48.884;8.338;2023-07-31T08:16:38;100031.19;;;22.89;100.00
10881;BME280;5493;48.884;8.338;2023-07-31T08:19:05;100024.03;;;23.02;100.00
10881;BME280;5493;48.884;8.338;2023-07-31T08:21:32;100029.06;;;23.36;100.00
10881;BME280;5493;48.884;8.338;2023-07-31T08:23:58;100012.69;;;23.17;100.00
10881;BME280;5493;48.884;8.338;2023-07-31T08:26:25;100027.84;;;23.28;100.00
10881;BME280;5493;48.884;8.338;2023-07-31T08:28:51;100024.31;;;23.14;100.00
10881;BME280;5493;48.884;8.338;2023-07-31T08:31:18;100022.25;;;23.20;100.00
10881;BME280;5493;48.884;8.338;2023-07-31T08:33:45;100018.31;;;23.48;100.00
10881;BME280;5493;48.884;8.338;2023-07-31T08:36:13;100018.41;;;23.57;98.74
10881;BME280;5493;48.884;8.338;2023-07-31T08:38:39;100027.91;;;23.37;99.04
10881;BME280;5493;48.884;8.338;2023-07-31T08:41:06;100020.16;;;23.75;99.99
10881;BME280;5493;48.884;8.338;2023-07-31T08:43:33;100010.72;;;23.89;100.00
10881;BME280;5493;48.884;8.338;2023-07-31T08:46:00;100005.25;;;23.98;100.00
10881;BME280;5493;48.884;8.338;2023-07-31T08:48:28;99982.31;;;23.58;99.81
10881;BME280;5493;48.884;8.338;2023-07-31T08:50:55;100001.78;;;23.62;100.00
10881;BME280;5493;48.884;8.338;2023-07-31T08:53:23;99988.50;;;23.64;100.00
10881;BME280;5493;48.884;8.338;2023-07-31T08:55:50;99985.53;;;24.35;98.94
10881;BME280;5493;48.884;8.338;2023-07-31T08:58:19;99987.50;;;24.43;94.58
10881;BME280;5493;48.884;8.338;2023-07-31T09:00:46;99992.34;;;24.77;96.58
10881;BME280;5493;48.884;8.338;2023-07-31T09:03:14;99983.31;;;24.94;89.91
10881;BME280;5493;48.884;8.338;2023-07-31T09:05:42;99993.41;;;25.16;89.18
10881;BME280;5493;48.884;8.338;2023-07-31T09:08:10;99980.47;;;24.68;89.88
10881;BME280;5493;48.884;8.338;2023-07-31T09:10:41;99973.44;;;25.62;87.82
10881;BME280;5493;48.884;8.338;2023-07-31T09:13:08;99971.22;;;26.10;87.92
10881;BME280;5493;48.884;8.338;2023-07-31T09:15:35;99978.31;;;25.39;86.65
10881;BME280;5493;48.884;8.338;2023-07-31T09:18:02;99965.94;;;24.93;87.04
10881;BME280;5493;48.884;8.338;2023-07-31T09:20:30;99971.16;;;25.38;85.13
10881;BME280;5493;48.884;8.338;2023-07-31T09:22:57;99953.25;;;25.87;86.95
10881;BME280;5493;48.884;8.338;2023-07-31T09:25:31;99956.00;;;25.87;87.25
10881;BME280;5493;48.884;8.338;2023-07-31T09:28:00;99955.06;;;25.48;83.78
10881;BME280;5493;48.884;8.338;2023-07-31T09:30:27;99946.59;;;25.79;84.12
10881;BME280;5493;48.884;8.338;2023-07-31T09:33:01;99947.97;;;25.13;82.43
10881;BME280;5493;48.884;8.338;2023-07-31T09:35:30;99946.78;;;25.66;83.33
10881;BME280;5493;48.884;8.338;2023-07-31T09:37:58;99951.19;;;25.15;84.04
10881;BME280;5493;48.884;8.338;2023-07-31T09:40:27;99938.22;;;24.98;86.21
10881;BME280;5493;48.884;8.338;2023-07-31T09:42:56;99931.22;;;25.27;88.32
10881;BME280;5493;48.884;8.338;2023-07-31T09:45:25;99939.00;;;25.33;80.85
10881;BME280;5493;48.884;8.338;2023-07-31T09:47:51;99915.41;;;24.67;85.89
10881;BME280;5493;48.884;8.338;2023-07-31T09:50:20;99938.19;;;25.67;84.52
10881;BME280;5493;48.884;8.338;2023-07-31T09:52:47;99937.38;;;25.75;79.62
10881;BME280;5493;48.884;8.338;2023-07-31T09:55:14;99939.97;;;26.56;77.40
10881;BME280;5493;48.884;8.338;2023-07-31T09:57:41;99941.94;;;25.71;81.93
10881;BME280;5493;48.884;8.338;2023-07-31T10:00:08;99939.41;;;26.04;76.75
10881;BME280;5493;48.884;8.338;2023-07-31T10:02:37;99932.81;;;25.62;78.52
10881;BME280;5493;48.884;8.338;2023-07-31T10:05:05;99932.19;;;25.48;78.28
10881;BME280;5493;48.884;8.338;2023-07-31T10:07:36;99926.19;;;25.37;78.88
10881;BME280;5493;48.884;8.338;2023-07-31T10:10:04;99929.25;;;25.70;78.24
10881;BME280;5493;48.884;8.338;2023-07-31T10:12:32;99886.03;;;25.66;76.06
10881;BME280;5493;48.884;8.338;2023-07-31T10:15:00;99921.50;;;26.02;76.48
10881;BME280;5493;48.884;8.338;2023-07-31T10:17:26;99915.44;;;26.17;78.84
10881;BME280;5493;48.884;8.338;2023-07-31T10:19:56;99916.41;;;26.12;78.44
10881;BME280;5493;48.884;8.338;2023-07-31T10:22:24;99920.34;;;26.11;77.61
10881;BME280;5493;48.884;8.338;2023-07-31T10:24:52;99925.31;;;25.80;78.60
10881;BME280;5493;48.884;8.338;2023-07-31T10:27:18;99920.81;;;25.58;82.66
10881;BME280;5493;48.884;8.338;2023-07-31T10:29:45;99920.69;;;25.20;84.00
10881;BME280;5493;48.884;8.338;2023-07-31T10:32:15;99925.16;;;25.76;85.41
10881;BME280;5493;48.884;8.338;2023-07-31T10:34:43;99925.53;;;25.23;86.01
10881;BME280;5493;48.884;8.338;2023-07-31T10:37:21;99925.16;;;25.76;86.76
10881;BME280;5493;48.884;8.338;2023-07-31T10:39:59;99921.31;;;25.09;86.30
10881;BME280;5493;48.884;8.338;2023-07-31T10:42:33;99914.06;;;24.39;89.39
10881;BME280;5493;48.884;8.338;2023-07-31T10:45:02;99935.06;;;24.83;90.12
10881;BME280;5493;48.884;8.338;2023-07-31T10:47:29;99931.06;;;25.06;92.30
10881;BME280;5493;48.884;8.338;2023-07-31T10:50:13;99920.44;;;24.65;92.25
10881;BME280;5493;48.884;8.338;2023-07-31T10:52:44;99918.00;;;24.64;92.92
10881;BME280;5493;48.884;8.338;2023-07-31T10:55:24;99934.50;;;24.38;94.19
10881;BME280;5493;48.884;8.338;2023-07-31T10:57:52;99931.78;;;24.55;90.70
10881;BME280;5493;48.884;8.338;2023-07-31T11:00:21;99915.53;;;24.45;89.23
10881;BME280;5493;48.884;8.338;2023-07-31T11:03:03;99915.97;;;25.04;85.70
10881;BME280;5493;48.884;8.338;2023-07-31T11:06:00;99924.66;;;24.63;88.04
10881;BME280;5493;48.884;8.338;2023-07-31T11:08:31;99912.22;;;25.34;86.76
10881;BME280;5493;48.884;8.338;2023-07-31T11:11:08;99908.50;;;24.95;83.21
10881;BME280;5493;48.884;8.338;2023-07-31T11:13:41;99907.19;;;25.53;82.17
10881;BME280;5493;48.884;8.338;2023-07-31T11:16:07;99914.47;;;25.40;86.48
10881;BME280;5493;48.884;8.338;2023-07-31T11:18:34;99910.78;;;25.28;82.61
10881;BME280;5493;48.884;8.338;2023-07-31T11:21:01;99904.78;;;25.17;83.31
10881;BME280;5493;48.884;8.338;2023-07-31T11:23:30;99904.44;;;25.19;83.65
10881;BME280;5493;48.884;8.338;2023-07-31T11:25:59;99904.69;;;24.48;88.92
10881;BME280;5493;48.884;8.338;2023-07-31T11:28:25;99896.91;;;24.50;92.30
10881;BME280;5493;48.884;8.338;2023-07-31T11:30:52;99898.94;;;24.84;91.24
10881;BME280;5493;48.884;8.338;2023-07-31T11:33:18;99891.28;;;24.81;89.56
10881;BME280;5493;48.884;8.338;2023-07-31T11:35:46;99895.00;;;24.77;93.24
10881;BME280;5493;48.884;8.338;2023-07-31T11:38:21;99874.91;;;24.93;90.84
10881;BME280;5493;48.884;8.338;2023-07-31T11:40:50;99895.50;;;25.30;89.97
10881;BME280;5493;48.884;8.338;2023-07-31T11:43:17;99888.66;;;25.62;86.60
10881;BME280;5493;48.884;8.338;2023-07-31T11:45:46;99867.91;;;25.39;84.47
10881;BME280;5493;48.884;8.338;2023-07-31T11:48:18;99871.34;;;25.02;88.54
10881;BME280;5493;48.884;8.338;2023-07-31T11:50:45;99875.81;;;25.49;86.73
10881;BME280;5493;48.884;8.338;2023-07-31T11:53:13;99880.41;;;25.54;86.86
10881;BME280;5493;48.884;8.338;2023-07-31T11:55:40;99857.97;;;25.64;85.02
10881;BME280;5493;48.884;8.338;2023-07-31T11:58:08;99858.16;;;25.97;86.57
10881;BME280;5493;48.884;8.338;2023-07-31T12:00:35;99849.59;;;25.81;81.32
10881;BME280;5493;48.884;8.338;2023-07-31T12:03:01;99847.16;;;26.47;82.28
10881;BME280;5493;48.884;8.338;2023-07-31T12:05:28;99842.97;;;26.11;78.42
10881;BME280;5493;48.884;8.338;2023-07-31T12:07:55;99840.44;;;26.27;80.51
10881;BME280;5493;48.884;8.338;2023-07-31T12:10:27;99825.34;;;26.24;77.90
10881;BME280;5493;48.884;8.338;2023-07-31T12:13:00;99819.41;;;26.05;81.59
10881;BME280;5493;48.884;8.338;2023-07-31T12:15:39;99830.03;;;25.94;82.37
10881;BME280;5493;48.884;8.338;2023-07-31T12:18:08;99827.31;;;26.44;79.95
10881;BME280;5493;48.884;8.338;2023-07-31T12:20:35;99818.78;;;27.00;76.47
10881;BME280;5493;48.884;8.338;2023-07-31T12:23:05;99825.75;;;27.51;75.64
10881;BME280;5493;48.884;8.338;2023-07-31T12:25:33;99814.69;;;27.51;71.74
10881;BME280;5493;48.884;8.338;2023-07-31T12:28:05;99819.78;;;27.28;73.62
10881;BME280;5493;48.884;8.338;2023-07-31T12:30:38;99808.16;;;26.81;75.78
10881;BME280;5493;48.884;8.338;2023-07-31T12:33:06;99807.09;;;26.03;82.44
10881;BME280;5493;48.884;8.338;2023-07-31T12:35:37;99814.38;;;26.07;85.92
10881;BME280;5493;48.884;8.338;2023-07-31T12:38:04;99802.41;;;25.94;87.20
10881;BME280;5493;48.884;8.338;2023-07-31T12:40:30;99807.91;;;26.32;83.68
10881;BME280;5493;48.884;8.338;2023-07-31T12:42:57;99809.88;;;26.53;86.18
10881;BME280;5493;48.884;8.338;2023-07-31T12:45:23;99808.44;;;26.26;81.02
10881;BME280;5493;48.884;8.338;2023-07-31T12:47:51;99802.28;;;26.20;82.35
10881;BME280;5493;48.884;8.338;2023-07-31T12:50:18;99805.59;;;26.34;82.30
10881;BME280;5493;48.884;8.338;2023-07-31T12:52:45;99796.44;;;26.13;82.21
10881;BME280;5493;48.884;8.338;2023-07-31T12:55:11;99782.22;;;26.03;84.48
10881;BME280;5493;48.884;8.338;2023-07-31T12:57:39;99791.25;;;26.41;81.81
10881;BME280;5493;48.884;8.338;2023-07-31T13:00:07;99792.13;;;26.04;82.31